Saint-Charles-Sur-Richelieu, Canada
Current Conditions -  °F | °C
As of 11:00 PM on Friday 24 Oct 2014 (Local Time) from CYHU Reporting Station
Clear Clear  
Wind Chill:   Ceiling: Unl
Heat Index:   Visibility: 9mi
Dew Point:   Wind: 3mph
Humidity: 87%   Direction: 160°SSE
Pressure: 29.79"   Gusts: NA
Location:  45.68°N, 73.18°W
Report Text: CYHU 250300Z AUTO 16003KT 9SM CLR 04/02 A2979 RMK SLP089
Loading
Personal Weather Stations






























Interactive Weather Map
Tropical Storm Tracking
New forecast layout! Learn more

10-Day Weather Forecast

Advertisements
Track Severe Weather on mobile